sensor_id;sensor_type;location;lat;lon;timestamp;P1;durP1;ratioP1;P2;durP2;ratioP2
13406;SDS011;6774;48.208;10.766;2023-07-13T00:02:19;3.13;;;2.93;;
13406;SDS011;6774;48.208;10.766;2023-07-13T00:04:47;3.53;;;3.33;;
13406;SDS011;6774;48.208;10.766;2023-07-13T00:07:15;3.50;;;3.20;;
13406;SDS011;6774;48.208;10.766;2023-07-13T00:09:46;2.80;;;2.57;;
13406;SDS011;6774;48.208;10.766;2023-07-13T00:12:24;2.77;;;2.60;;
13406;SDS011;6774;48.208;10.766;2023-07-13T00:14:56;3.50;;;2.93;;
13406;SDS011;6774;48.208;10.766;2023-07-13T00:17:26;3.93;;;3.53;;
13406;SDS011;6774;48.208;10.766;2023-07-13T00:19:55;3.87;;;3.57;;
13406;SDS011;6774;48.208;10.766;2023-07-13T00:22:24;4.73;;;4.20;;
13406;SDS011;6774;48.208;10.766;2023-07-13T00:24:53;4.27;;;3.97;;
13406;SDS011;6774;48.208;10.766;2023-07-13T00:27:23;4.23;;;4.03;;
13406;SDS011;6774;48.208;10.766;2023-07-13T00:29:53;4.20;;;3.83;;
13406;SDS011;6774;48.208;10.766;2023-07-13T00:32:22;3.07;;;2.87;;
13406;SDS011;6774;48.208;10.766;2023-07-13T00:34:51;5.77;;;4.73;;
13406;SDS011;6774;48.208;10.766;2023-07-13T00:37:19;4.53;;;4.10;;
13406;SDS011;6774;48.208;10.766;2023-07-13T00:39:47;6.47;;;3.37;;
13406;SDS011;6774;48.208;10.766;2023-07-13T00:42:14;9.97;;;5.93;;
13406;SDS011;6774;48.208;10.766;2023-07-13T00:47:30;3.30;;;3.10;;
13406;SDS011;6774;48.208;10.766;2023-07-13T00:49:58;3.57;;;3.23;;
13406;SDS011;6774;48.208;10.766;2023-07-13T00:52:26;5.00;;;2.97;;
13406;SDS011;6774;48.208;10.766;2023-07-13T00:54:55;6.10;;;3.20;;
13406;SDS011;6774;48.208;10.766;2023-07-13T00:57:23;3.50;;;3.17;;
13406;SDS011;6774;48.208;10.766;2023-07-13T00:59:53;4.23;;;2.67;;
13406;SDS011;6774;48.208;10.766;2023-07-13T01:02:23;12.77;;;3.30;;
13406;SDS011;6774;48.208;10.766;2023-07-13T01:04:52;3.27;;;2.80;;
13406;SDS011;6774;48.208;10.766;2023-07-13T01:07:20;3.70;;;3.40;;
13406;SDS011;6774;48.208;10.766;2023-07-13T01:09:48;3.17;;;3.07;;
13406;SDS011;6774;48.208;10.766;2023-07-13T01:12:18;3.17;;;2.87;;
13406;SDS011;6774;48.208;10.766;2023-07-13T01:14:46;3.20;;;2.93;;
13406;SDS011;6774;48.208;10.766;2023-07-13T01:17:14;4.17;;;3.13;;
13406;SDS011;6774;48.208;10.766;2023-07-13T01:19:43;7.27;;;3.30;;
13406;SDS011;6774;48.208;10.766;2023-07-13T01:22:14;5.37;;;3.67;;
13406;SDS011;6774;48.208;10.766;2023-07-13T01:24:44;3.23;;;2.93;;
13406;SDS011;6774;48.208;10.766;2023-07-13T01:27:15;2.27;;;2.10;;
13406;SDS011;6774;48.208;10.766;2023-07-13T01:29:45;4.63;;;3.40;;
13406;SDS011;6774;48.208;10.766;2023-07-13T01:32:16;3.83;;;3.63;;
13406;SDS011;6774;48.208;10.766;2023-07-13T01:34:52;3.93;;;3.57;;
13406;SDS011;6774;48.208;10.766;2023-07-13T01:37:22;11.80;;;4.33;;
13406;SDS011;6774;48.208;10.766;2023-07-13T01:39:51;5.13;;;4.63;;
13406;SDS011;6774;48.208;10.766;2023-07-13T01:42:19;3.57;;;3.37;;
13406;SDS011;6774;48.208;10.766;2023-07-13T01:44:47;2.67;;;2.30;;
13406;SDS011;6774;48.208;10.766;2023-07-13T01:47:15;4.27;;;3.43;;
13406;SDS011;6774;48.208;10.766;2023-07-13T01:49:44;4.00;;;3.70;;
13406;SDS011;6774;48.208;10.766;2023-07-13T01:52:13;2.93;;;2.60;;
13406;SDS011;6774;48.208;10.766;2023-07-13T01:54:43;2.73;;;2.17;;
13406;SDS011;6774;48.208;10.766;2023-07-13T01:57:10;2.37;;;2.27;;
13406;SDS011;6774;48.208;10.766;2023-07-13T01:59:38;2.23;;;2.10;;
13406;SDS011;6774;48.208;10.766;2023-07-13T02:02:06;3.53;;;2.70;;
13406;SDS011;6774;48.208;10.766;2023-07-13T02:04:34;3.90;;;3.13;;
13406;SDS011;6774;48.208;10.766;2023-07-13T02:07:02;2.67;;;2.47;;
13406;SDS011;6774;48.208;10.766;2023-07-13T02:09:30;3.30;;;2.33;;
13406;SDS011;6774;48.208;10.766;2023-07-13T02:11:59;2.77;;;2.63;;
13406;SDS011;6774;48.208;10.766;2023-07-13T02:14:32;2.67;;;2.57;;
13406;SDS011;6774;48.208;10.766;2023-07-13T02:17:00;3.43;;;3.13;;
13406;SDS011;6774;48.208;10.766;2023-07-13T02:19:27;6.37;;;4.03;;
13406;SDS011;6774;48.208;10.766;2023-07-13T02:21:55;2.63;;;2.53;;
13406;SDS011;6774;48.208;10.766;2023-07-13T02:24:23;2.67;;;2.50;;
13406;SDS011;6774;48.208;10.766;2023-07-13T02:26:51;2.70;;;2.60;;
13406;SDS011;6774;48.208;10.766;2023-07-13T02:29:21;2.70;;;2.50;;
13406;SDS011;6774;48.208;10.766;2023-07-13T02:31:49;4.10;;;2.47;;
13406;SDS011;6774;48.208;10.766;2023-07-13T02:34:17;3.00;;;2.07;;
13406;SDS011;6774;48.208;10.766;2023-07-13T02:36:45;2.50;;;2.33;;
13406;SDS011;6774;48.208;10.766;2023-07-13T02:39:13;2.70;;;2.50;;
13406;SDS011;6774;48.208;10.766;2023-07-13T02:41:41;1.83;;;1.73;;
13406;SDS011;6774;48.208;10.766;2023-07-13T02:44:09;2.33;;;2.17;;
13406;SDS011;6774;48.208;10.766;2023-07-13T02:46:38;2.23;;;1.83;;
13406;SDS011;6774;48.208;10.766;2023-07-13T02:49:06;1.90;;;1.80;;
13406;SDS011;6774;48.208;10.766;2023-07-13T02:51:34;2.10;;;2.00;;
13406;SDS011;6774;48.208;10.766;2023-07-13T02:54:03;1.53;;;1.40;;
13406;SDS011;6774;48.208;10.766;2023-07-13T02:56:32;1.87;;;1.77;;
13406;SDS011;6774;48.208;10.766;2023-07-13T02:59:00;2.17;;;1.97;;
13406;SDS011;6774;48.208;10.766;2023-07-13T03:01:29;3.70;;;3.40;;
13406;SDS011;6774;48.208;10.766;2023-07-13T03:03:58;3.43;;;1.60;;
13406;SDS011;6774;48.208;10.766;2023-07-13T03:06:26;2.00;;;1.90;;
13406;SDS011;6774;48.208;10.766;2023-07-13T03:08:56;3.63;;;2.83;;
13406;SDS011;6774;48.208;10.766;2023-07-13T03:11:24;4.23;;;1.73;;
13406;SDS011;6774;48.208;10.766;2023-07-13T03:14:06;1.53;;;1.43;;
13406;SDS011;6774;48.208;10.766;2023-07-13T03:16:37;5.00;;;3.23;;
13406;SDS011;6774;48.208;10.766;2023-07-13T03:19:06;8.27;;;2.03;;
13406;SDS011;6774;48.208;10.766;2023-07-13T03:21:33;4.77;;;2.63;;
13406;SDS011;6774;48.208;10.766;2023-07-13T03:24:01;3.67;;;1.53;;
13406;SDS011;6774;48.208;10.766;2023-07-13T03:26:29;2.80;;;2.50;;
13406;SDS011;6774;48.208;10.766;2023-07-13T03:28:57;1.80;;;1.70;;
13406;SDS011;6774;48.208;10.766;2023-07-13T03:31:26;2.23;;;2.13;;
13406;SDS011;6774;48.208;10.766;2023-07-13T03:33:56;2.10;;;1.90;;
13406;SDS011;6774;48.208;10.766;2023-07-13T03:36:27;2.27;;;2.10;;
13406;SDS011;6774;48.208;10.766;2023-07-13T03:39:02;2.80;;;2.60;;
13406;SDS011;6774;48.208;10.766;2023-07-13T03:41:51;2.00;;;1.90;;
13406;SDS011;6774;48.208;10.766;2023-07-13T03:44:19;2.10;;;1.60;;
13406;SDS011;6774;48.208;10.766;2023-07-13T03:46:52;2.07;;;1.73;;
13406;SDS011;6774;48.208;10.766;2023-07-13T03:49:20;1.63;;;1.53;;
13406;SDS011;6774;48.208;10.766;2023-07-13T03:51:49;2.37;;;2.27;;
13406;SDS011;6774;48.208;10.766;2023-07-13T03:54:19;2.27;;;2.07;;
13406;SDS011;6774;48.208;10.766;2023-07-13T03:56:47;3.37;;;2.03;;
13406;SDS011;6774;48.208;10.766;2023-07-13T03:59:16;2.43;;;2.23;;
13406;SDS011;6774;48.208;10.766;2023-07-13T04:01:45;2.70;;;2.47;;
13406;SDS011;6774;48.208;10.766;2023-07-13T04:04:13;1.97;;;1.87;;
13406;SDS011;6774;48.208;10.766;2023-07-13T04:06:42;2.30;;;2.20;;
13406;SDS011;6774;48.208;10.766;2023-07-13T04:09:12;2.13;;;1.93;;
13406;SDS011;6774;48.208;10.766;2023-07-13T04:11:41;4.30;;;2.80;;
13406;SDS011;6774;48.208;10.766;2023-07-13T04:14:08;2.90;;;2.70;;
13406;SDS011;6774;48.208;10.766;2023-07-13T04:16:36;2.20;;;2.10;;
13406;SDS011;6774;48.208;10.766;2023-07-13T04:19:04;3.20;;;2.07;;
13406;SDS011;6774;48.208;10.766;2023-07-13T04:21:32;4.43;;;2.20;;
13406;SDS011;6774;48.208;10.766;2023-07-13T04:24:00;2.53;;;2.33;;
13406;SDS011;6774;48.208;10.766;2023-07-13T04:26:29;2.70;;;2.50;;
13406;SDS011;6774;48.208;10.766;2023-07-13T04:28:57;3.23;;;3.03;;
13406;SDS011;6774;48.208;10.766;2023-07-13T04:31:25;2.70;;;2.50;;
13406;SDS011;6774;48.208;10.766;2023-07-13T04:33:53;4.07;;;3.67;;
13406;SDS011;6774;48.208;10.766;2023-07-13T04:36:20;3.47;;;3.27;;
13406;SDS011;6774;48.208;10.766;2023-07-13T04:38:48;3.43;;;3.13;;
13406;SDS011;6774;48.208;10.766;2023-07-13T04:41:16;5.07;;;3.87;;
13406;SDS011;6774;48.208;10.766;2023-07-13T04:43:45;2.87;;;2.77;;
13406;SDS011;6774;48.208;10.766;2023-07-13T04:46:14;2.10;;;2.00;;
13406;SDS011;6774;48.208;10.766;2023-07-13T04:48:44;3.07;;;2.77;;
13406;SDS011;6774;48.208;10.766;2023-07-13T04:51:12;3.97;;;3.70;;
13406;SDS011;6774;48.208;10.766;2023-07-13T04:53:40;3.20;;;2.90;;
13406;SDS011;6774;48.208;10.766;2023-07-13T04:56:08;2.80;;;2.63;;
13406;SDS011;6774;48.208;10.766;2023-07-13T04:58:36;2.47;;;2.37;;
13406;SDS011;6774;48.208;10.766;2023-07-13T05:01:05;3.93;;;2.23;;
13406;SDS011;6774;48.208;10.766;2023-07-13T05:03:35;3.30;;;3.10;;
13406;SDS011;6774;48.208;10.766;2023-07-13T05:06:04;2.93;;;2.43;;
13406;SDS011;6774;48.208;10.766;2023-07-13T05:08:33;3.03;;;2.67;;
13406;SDS011;6774;48.208;10.766;2023-07-13T05:11:01;3.60;;;2.77;;
13406;SDS011;6774;48.208;10.766;2023-07-13T05:13:29;5.40;;;2.80;;
13406;SDS011;6774;48.208;10.766;2023-07-13T05:15:58;2.93;;;1.97;;
13406;SDS011;6774;48.208;10.766;2023-07-13T05:18:28;3.50;;;2.77;;
13406;SDS011;6774;48.208;10.766;2023-07-13T05:20:57;2.87;;;2.50;;
13406;SDS011;6774;48.208;10.766;2023-07-13T05:23:26;2.20;;;1.97;;
13406;SDS011;6774;48.208;10.766;2023-07-13T05:25:54;6.73;;;3.27;;
13406;SDS011;6774;48.208;10.766;2023-07-13T05:28:22;4.70;;;2.70;;
13406;SDS011;6774;48.208;10.766;2023-07-13T05:30:50;33.13;;;3.63;;
13406;SDS011;6774;48.208;10.766;2023-07-13T05:33:18;3.03;;;2.73;;
13406;SDS011;6774;48.208;10.766;2023-07-13T05:35:47;3.47;;;3.27;;
13406;SDS011;6774;48.208;10.766;2023-07-13T05:38:15;4.13;;;2.50;;
13406;SDS011;6774;48.208;10.766;2023-07-13T05:40:43;4.57;;;1.63;;
13406;SDS011;6774;48.208;10.766;2023-07-13T05:43:10;3.10;;;2.57;;
13406;SDS011;6774;48.208;10.766;2023-07-13T05:45:38;4.00;;;3.70;;
13406;SDS011;6774;48.208;10.766;2023-07-13T05:48:06;2.70;;;2.50;;
13406;SDS011;6774;48.208;10.766;2023-07-13T05:50:34;3.03;;;2.83;;
13406;SDS011;6774;48.208;10.766;2023-07-13T05:53:03;3.47;;;3.23;;
13406;SDS011;6774;48.208;10.766;2023-07-13T05:55:31;2.43;;;2.33;;
13406;SDS011;6774;48.208;10.766;2023-07-13T05:58:00;3.57;;;3.37;;
13406;SDS011;6774;48.208;10.766;2023-07-13T06:00:28;2.30;;;2.20;;
13406;SDS011;6774;48.208;10.766;2023-07-13T06:02:56;5.77;;;2.30;;
13406;SDS011;6774;48.208;10.766;2023-07-13T06:05:25;4.00;;;2.83;;
13406;SDS011;6774;48.208;10.766;2023-07-13T06:07:53;1.77;;;1.67;;
13406;SDS011;6774;48.208;10.766;2023-07-13T06:10:22;1.77;;;1.67;;
13406;SDS011;6774;48.208;10.766;2023-07-13T06:12:50;2.00;;;1.90;;
13406;SDS011;6774;48.208;10.766;2023-07-13T06:15:18;2.07;;;1.83;;
13406;SDS011;6774;48.208;10.766;2023-07-13T06:17:46;2.43;;;1.30;;
13406;SDS011;6774;48.208;10.766;2023-07-13T06:20:14;4.80;;;1.57;;
13406;SDS011;6774;48.208;10.766;2023-07-13T06:22:41;1.97;;;1.47;;
13406;SDS011;6774;48.208;10.766;2023-07-13T06:25:09;3.60;;;0.97;;
13406;SDS011;6774;48.208;10.766;2023-07-13T06:27:38;1.00;;;1.00;;
13406;SDS011;6774;48.208;10.766;2023-07-13T06:30:06;1.33;;;1.00;;
13406;SDS011;6774;48.208;10.766;2023-07-13T06:32:35;1.10;;;1.10;;
13406;SDS011;6774;48.208;10.766;2023-07-13T06:35:06;2.90;;;1.23;;
13406;SDS011;6774;48.208;10.766;2023-07-13T06:37:34;0.93;;;0.93;;
13406;SDS011;6774;48.208;10.766;2023-07-13T06:40:02;0.80;;;0.50;;
13406;SDS011;6774;48.208;10.766;2023-07-13T06:42:31;1.23;;;0.60;;
13406;SDS011;6774;48.208;10.766;2023-07-13T06:45:00;1.57;;;1.47;;
13406;SDS011;6774;48.208;10.766;2023-07-13T06:47:28;1.63;;;1.43;;
13406;SDS011;6774;48.208;10.766;2023-07-13T06:49:59;1.20;;;1.10;;
13406;SDS011;6774;48.208;10.766;2023-07-13T06:52:27;1.33;;;1.23;;
13406;SDS011;6774;48.208;10.766;2023-07-13T06:54:55;0.73;;;0.73;;
13406;SDS011;6774;48.208;10.766;2023-07-13T06:57:22;1.53;;;1.43;;
13406;SDS011;6774;48.208;10.766;2023-07-13T06:59:50;3.57;;;1.47;;
13406;SDS011;6774;48.208;10.766;2023-07-13T07:02:19;2.13;;;0.70;;
13406;SDS011;6774;48.208;10.766;2023-07-13T07:04:47;1.80;;;0.70;;
13406;SDS011;6774;48.208;10.766;2023-07-13T07:07:15;2.17;;;0.83;;
13406;SDS011;6774;48.208;10.766;2023-07-13T07:09:42;1.13;;;0.90;;
13406;SDS011;6774;48.208;10.766;2023-07-13T07:12:10;1.70;;;1.60;;
13406;SDS011;6774;48.208;10.766;2023-07-13T07:14:40;1.27;;;1.17;;
13406;SDS011;6774;48.208;10.766;2023-07-13T07:17:08;1.27;;;0.70;;
13406;SDS011;6774;48.208;10.766;2023-07-13T07:19:38;3.10;;;1.10;;
13406;SDS011;6774;48.208;10.766;2023-07-13T07:22:06;0.70;;;0.70;;
13406;SDS011;6774;48.208;10.766;2023-07-13T07:24:34;0.77;;;0.60;;
13406;SDS011;6774;48.208;10.766;2023-07-13T07:27:02;1.60;;;0.97;;
13406;SDS011;6774;48.208;10.766;2023-07-13T07:29:33;1.43;;;0.97;;
13406;SDS011;6774;48.208;10.766;2023-07-13T07:32:04;0.97;;;0.90;;
13406;SDS011;6774;48.208;10.766;2023-07-13T07:34:45;1.80;;;1.63;;
13406;SDS011;6774;48.208;10.766;2023-07-13T07:37:13;0.67;;;0.67;;
13406;SDS011;6774;48.208;10.766;2023-07-13T07:39:44;1.07;;;0.90;;
13406;SDS011;6774;48.208;10.766;2023-07-13T07:42:32;2.33;;;1.03;;
13406;SDS011;6774;48.208;10.766;2023-07-13T07:45:00;0.77;;;0.77;;
13406;SDS011;6774;48.208;10.766;2023-07-13T07:47:28;0.53;;;0.50;;
13406;SDS011;6774;48.208;10.766;2023-07-13T07:49:57;0.80;;;0.80;;
13406;SDS011;6774;48.208;10.766;2023-07-13T07:52:25;2.10;;;1.60;;
13406;SDS011;6774;48.208;10.766;2023-07-13T07:54:52;2.73;;;1.47;;
13406;SDS011;6774;48.208;10.766;2023-07-13T07:57:23;1.77;;;1.67;;
13406;SDS011;6774;48.208;10.766;2023-07-13T07:59:54;1.73;;;1.07;;
13406;SDS011;6774;48.208;10.766;2023-07-13T08:02:25;1.13;;;1.07;;
13406;SDS011;6774;48.208;10.766;2023-07-13T08:04:55;3.33;;;1.37;;
13406;SDS011;6774;48.208;10.766;2023-07-13T08:07:28;0.80;;;0.80;;
13406;SDS011;6774;48.208;10.766;2023-07-13T08:09:58;7.40;;;1.37;;
13406;SDS011;6774;48.208;10.766;2023-07-13T08:12:26;1.37;;;1.13;;
13406;SDS011;6774;48.208;10.766;2023-07-13T08:14:57;1.07;;;0.97;;
13406;SDS011;6774;48.208;10.766;2023-07-13T08:17:26;1.53;;;1.43;;
13406;SDS011;6774;48.208;10.766;2023-07-13T08:19:54;1.63;;;1.53;;
13406;SDS011;6774;48.208;10.766;2023-07-13T08:22:23;3.27;;;1.60;;
13406;SDS011;6774;48.208;10.766;2023-07-13T08:24:51;0.80;;;0.80;;
13406;SDS011;6774;48.208;10.766;2023-07-13T08:27:23;1.03;;;0.93;;
13406;SDS011;6774;48.208;10.766;2023-07-13T08:29:51;1.33;;;1.10;;
13406;SDS011;6774;48.208;10.766;2023-07-13T08:32:20;0.90;;;0.87;;
13406;SDS011;6774;48.208;10.766;2023-07-13T08:34:49;1.47;;;1.37;;
13406;SDS011;6774;48.208;10.766;2023-07-13T08:37:17;0.87;;;0.80;;
13406;SDS011;6774;48.208;10.766;2023-07-13T08:39:47;0.67;;;0.67;;
13406;SDS011;6774;48.208;10.766;2023-07-13T08:42:27;6.23;;;2.57;;
13406;SDS011;6774;48.208;10.766;2023-07-13T08:45:03;1.07;;;0.93;;
13406;SDS011;6774;48.208;10.766;2023-07-13T08:47:40;1.53;;;1.43;;
13406;SDS011;6774;48.208;10.766;2023-07-13T08:50:13;0.83;;;0.83;;
13406;SDS011;6774;48.208;10.766;2023-07-13T08:52:44;3.53;;;1.00;;
13406;SDS011;6774;48.208;10.766;2023-07-13T08:55:15;2.63;;;1.43;;
13406;SDS011;6774;48.208;10.766;2023-07-13T08:57:46;1.33;;;1.10;;
13406;SDS011;6774;48.208;10.766;2023-07-13T09:00:20;1.73;;;1.13;;
13406;SDS011;6774;48.208;10.766;2023-07-13T09:02:51;1.93;;;1.53;;
13406;SDS011;6774;48.208;10.766;2023-07-13T09:05:25;1.30;;;0.83;;
13406;SDS011;6774;48.208;10.766;2023-07-13T09:08:00;1.63;;;1.50;;
13406;SDS011;6774;48.208;10.766;2023-07-13T09:10:37;6.33;;;1.50;;
13406;SDS011;6774;48.208;10.766;2023-07-13T09:13:15;1.60;;;1.50;;
13406;SDS011;6774;48.208;10.766;2023-07-13T09:15:54;4.00;;;1.97;;
13406;SDS011;6774;48.208;10.766;2023-07-13T09:18:23;1.93;;;1.73;;
13406;SDS011;6774;48.208;10.766;2023-07-13T09:20:56;1.67;;;1.57;;
13406;SDS011;6774;48.208;10.766;2023-07-13T09:23:27;4.43;;;0.83;;
13406;SDS011;6774;48.208;10.766;2023-07-13T09:26:00;0.80;;;0.73;;
13406;SDS011;6774;48.208;10.766;2023-07-13T09:28:34;2.23;;;1.00;;
13406;SDS011;6774;48.208;10.766;2023-07-13T09:31:06;2.60;;;1.13;;
13406;SDS011;6774;48.208;10.766;2023-07-13T09:33:39;2.37;;;1.10;;
13406;SDS011;6774;48.208;10.766;2023-07-13T09:36:16;6.97;;;1.17;;
13406;SDS011;6774;48.208;10.766;2023-07-13T09:38:48;0.80;;;0.80;;
13406;SDS011;6774;48.208;10.766;2023-07-13T09:41:21;5.90;;;1.03;;
13406;SDS011;6774;48.208;10.766;2023-07-13T09:44:09;1.20;;;1.10;;
13406;SDS011;6774;48.208;10.766;2023-07-13T09:46:39;2.10;;;1.10;;
13406;SDS011;6774;48.208;10.766;2023-07-13T09:49:12;2.60;;;0.80;;
13406;SDS011;6774;48.208;10.766;2023-07-13T09:51:41;3.17;;;0.80;;
13406;SDS011;6774;48.208;10.766;2023-07-13T09:54:19;1.67;;;1.13;;
13406;SDS011;6774;48.208;10.766;2023-07-13T09:56:50;5.20;;;2.00;;
13406;SDS011;6774;48.208;10.766;2023-07-13T09:59:23;1.60;;;0.73;;
13406;SDS011;6774;48.208;10.766;2023-07-13T10:01:51;1.60;;;0.93;;
13406;SDS011;6774;48.208;10.766;2023-07-13T10:04:20;1.57;;;1.40;;
13406;SDS011;6774;48.208;10.766;2023-07-13T10:06:49;5.40;;;3.30;;
13406;SDS011;6774;48.208;10.766;2023-07-13T10:09:52;4.00;;;1.70;;
13406;SDS011;6774;48.208;10.766;2023-07-13T10:12:23;2.03;;;1.47;;
13406;SDS011;6774;48.208;10.766;2023-07-13T10:14:52;0.63;;;0.53;;
13406;SDS011;6774;48.208;10.766;2023-07-13T10:17:38;0.70;;;0.70;;
13406;SDS011;6774;48.208;10.766;2023-07-13T10:20:07;1.53;;;0.90;;
13406;SDS011;6774;48.208;10.766;2023-07-13T10:22:39;2.60;;;1.07;;
13406;SDS011;6774;48.208;10.766;2023-07-13T10:25:13;0.87;;;0.63;;
13406;SDS011;6774;48.208;10.766;2023-07-13T10:27:46;5.40;;;1.53;;
13406;SDS011;6774;48.208;10.766;2023-07-13T10:30:17;1.47;;;1.37;;
13406;SDS011;6774;48.208;10.766;2023-07-13T10:32:49;0.83;;;0.60;;
13406;SDS011;6774;48.208;10.766;2023-07-13T10:35:19;1.13;;;1.07;;
13406;SDS011;6774;48.208;10.766;2023-07-13T10:37:49;1.03;;;0.97;;
13406;SDS011;6774;48.208;10.766;2023-07-13T10:40:23;1.13;;;0.87;;
13406;SDS011;6774;48.208;10.766;2023-07-13T10:42:58;1.47;;;0.80;;
13406;SDS011;6774;48.208;10.766;2023-07-13T10:45:27;0.63;;;0.60;;
13406;SDS011;6774;48.208;10.766;2023-07-13T10:47:58;1.17;;;0.67;;
13406;SDS011;6774;48.208;10.766;2023-07-13T10:50:28;0.90;;;0.90;;
13406;SDS011;6774;48.208;10.766;2023-07-13T10:53:01;0.93;;;0.70;;
13406;SDS011;6774;48.208;10.766;2023-07-13T10:55:31;3.13;;;1.20;;
13406;SDS011;6774;48.208;10.766;2023-07-13T10:58:12;1.03;;;0.90;;
13406;SDS011;6774;48.208;10.766;2023-07-13T11:00:43;1.00;;;1.00;;
13406;SDS011;6774;48.208;10.766;2023-07-13T11:03:15;0.90;;;0.90;;
13406;SDS011;6774;48.208;10.766;2023-07-13T11:05:47;2.73;;;0.73;;
13406;SDS011;6774;48.208;10.766;2023-07-13T11:08:19;1.10;;;0.80;;
13406;SDS011;6774;48.208;10.766;2023-07-13T11:10:50;1.20;;;1.20;;
13406;SDS011;6774;48.208;10.766;2023-07-13T11:13:37;2.85;;;1.33;;
13406;SDS011;6774;48.208;10.766;2023-07-13T11:22:12;1.35;;;0.90;;
13406;SDS011;6774;48.208;10.766;2023-07-13T11:24:48;2.83;;;1.10;;
13406;SDS011;6774;48.208;10.766;2023-07-13T11:27:37;1.00;;;0.77;;
13406;SDS011;6774;48.208;10.766;2023-07-13T11:30:17;0.87;;;0.80;;
13406;SDS011;6774;48.208;10.766;2023-07-13T11:32:50;2.57;;;2.07;;
13406;SDS011;6774;48.208;10.766;2023-07-13T11:35:32;0.90;;;0.90;;
13406;SDS011;6774;48.208;10.766;2023-07-13T11:38:08;2.03;;;1.10;;
13406;SDS011;6774;48.208;10.766;2023-07-13T11:40:42;0.90;;;0.80;;
13406;SDS011;6774;48.208;10.766;2023-07-13T11:43:21;0.93;;;0.80;;
13406;SDS011;6774;48.208;10.766;2023-07-13T11:45:52;1.27;;;1.27;;
13406;SDS011;6774;48.208;10.766;2023-07-13T11:48:20;1.60;;;1.07;;
13406;SDS011;6774;48.208;10.766;2023-07-13T11:50:51;3.07;;;0.97;;
13406;SDS011;6774;48.208;10.766;2023-07-13T11:53:23;2.60;;;1.43;;
13406;SDS011;6774;48.208;10.766;2023-07-13T11:55:55;0.77;;;0.77;;
13406;SDS011;6774;48.208;10.766;2023-07-13T11:58:25;3.90;;;1.80;;
13406;SDS011;6774;48.208;10.766;2023-07-13T12:00:57;0.83;;;0.70;;
13406;SDS011;6774;48.208;10.766;2023-07-13T12:03:28;5.20;;;3.17;;
13406;SDS011;6774;48.208;10.766;2023-07-13T12:06:00;4.00;;;1.00;;
13406;SDS011;6774;48.208;10.766;2023-07-13T12:08:29;1.50;;;1.23;;
13406;SDS011;6774;48.208;10.766;2023-07-13T12:10:59;6.07;;;1.37;;
13406;SDS011;6774;48.208;10.766;2023-07-13T12:13:34;0.70;;;0.63;;
13406;SDS011;6774;48.208;10.766;2023-07-13T12:16:09;2.17;;;1.60;;
13406;SDS011;6774;48.208;10.766;2023-07-13T12:18:39;3.23;;;1.77;;
13406;SDS011;6774;48.208;10.766;2023-07-13T12:21:12;1.50;;;1.17;;
13406;SDS011;6774;48.208;10.766;2023-07-13T12:23:42;1.77;;;1.67;;
13406;SDS011;6774;48.208;10.766;2023-07-13T12:26:11;2.15;;;1.58;;
13406;SDS011;6774;48.208;10.766;2023-07-13T12:28:43;3.40;;;2.28;;
13406;SDS011;6774;48.208;10.766;2023-07-13T12:31:24;1.67;;;1.57;;
13406;SDS011;6774;48.208;10.766;2023-07-13T12:34:01;6.70;;;1.30;;
13406;SDS011;6774;48.208;10.766;2023-07-13T12:36:34;4.30;;;2.60;;
13406;SDS011;6774;48.208;10.766;2023-07-13T12:39:06;1.27;;;0.85;;
13406;SDS011;6774;48.208;10.766;2023-07-13T12:41:40;1.40;;;1.30;;
13406;SDS011;6774;48.208;10.766;2023-07-13T12:44:11;9.10;;;2.42;;
13406;SDS011;6774;48.208;10.766;2023-07-13T12:46:51;1.70;;;0.73;;
13406;SDS011;6774;48.208;10.766;2023-07-13T12:49:22;1.03;;;0.87;;
13406;SDS011;6774;48.208;10.766;2023-07-13T12:51:55;1.57;;;1.20;;
13406;SDS011;6774;48.208;10.766;2023-07-13T12:54:25;3.33;;;1.77;;
13406;SDS011;6774;48.208;10.766;2023-07-13T12:56:54;0.98;;;0.88;;
13406;SDS011;6774;48.208;10.766;2023-07-13T12:59:25;1.48;;;1.38;;
13406;SDS011;6774;48.208;10.766;2023-07-13T13:02:00;3.88;;;2.58;;
13406;SDS011;6774;48.208;10.766;2023-07-13T13:04:29;1.00;;;0.90;;
13406;SDS011;6774;48.208;10.766;2023-07-13T13:07:01;1.80;;;1.25;;
13406;SDS011;6774;48.208;10.766;2023-07-13T13:09:31;1.20;;;1.10;;
13406;SDS011;6774;48.208;10.766;2023-07-13T13:11:59;0.95;;;0.68;;
13406;SDS011;6774;48.208;10.766;2023-07-13T13:14:26;0.90;;;0.90;;
13406;SDS011;6774;48.208;10.766;2023-07-13T13:16:54;1.52;;;1.42;;
13406;SDS011;6774;48.208;10.766;2023-07-13T13:19:25;1.35;;;1.25;;
13406;SDS011;6774;48.208;10.766;2023-07-13T13:21:55;7.57;;;2.75;;
13406;SDS011;6774;48.208;10.766;2023-07-13T13:24:24;1.25;;;1.15;;
13406;SDS011;6774;48.208;10.766;2023-07-13T13:26:54;3.92;;;1.08;;
13406;SDS011;6774;48.208;10.766;2023-07-13T13:29:24;1.10;;;1.10;;
13406;SDS011;6774;48.208;10.766;2023-07-13T13:31:53;1.13;;;1.02;;
13406;SDS011;6774;48.208;10.766;2023-07-13T13:34:22;2.80;;;1.05;;
13406;SDS011;6774;48.208;10.766;2023-07-13T13:36:52;1.80;;;1.10;;
13406;SDS011;6774;48.208;10.766;2023-07-13T13:39:28;1.50;;;1.40;;
13406;SDS011;6774;48.208;10.766;2023-07-13T13:42:00;0.73;;;0.73;;
13406;SDS011;6774;48.208;10.766;2023-07-13T13:44:28;1.27;;;1.23;;
13406;SDS011;6774;48.208;10.766;2023-07-13T13:46:56;1.20;;;1.10;;
13406;SDS011;6774;48.208;10.766;2023-07-13T13:49:26;1.35;;;1.10;;
13406;SDS011;6774;48.208;10.766;2023-07-13T13:51:54;0.80;;;0.80;;
13406;SDS011;6774;48.208;10.766;2023-07-13T13:54:23;5.50;;;1.42;;
13406;SDS011;6774;48.208;10.766;2023-07-13T13:56:52;1.13;;;0.95;;
13406;SDS011;6774;48.208;10.766;2023-07-13T13:59:20;2.28;;;1.00;;
13406;SDS011;6774;48.208;10.766;2023-07-13T14:01:47;1.80;;;1.65;;
13406;SDS011;6774;48.208;10.766;2023-07-13T14:04:17;1.25;;;0.93;;
13406;SDS011;6774;48.208;10.766;2023-07-13T14:06:47;1.30;;;0.93;;
13406;SDS011;6774;48.208;10.766;2023-07-13T14:09:16;6.57;;;0.87;;
13406;SDS011;6774;48.208;10.766;2023-07-13T14:11:46;0.80;;;0.80;;
13406;SDS011;6774;48.208;10.766;2023-07-13T14:14:17;1.30;;;0.73;;
13406;SDS011;6774;48.208;10.766;2023-07-13T14:16:47;3.30;;;1.02;;
13406;SDS011;6774;48.208;10.766;2023-07-13T14:19:20;1.67;;;1.00;;
13406;SDS011;6774;48.208;10.766;2023-07-13T14:21:49;1.23;;;1.15;;
13406;SDS011;6774;48.208;10.766;2023-07-13T14:24:20;1.02;;;0.85;;
13406;SDS011;6774;48.208;10.766;2023-07-13T14:26:48;1.73;;;1.63;;
13406;SDS011;6774;48.208;10.766;2023-07-13T14:29:18;1.75;;;0.75;;
13406;SDS011;6774;48.208;10.766;2023-07-13T14:31:50;2.05;;;1.20;;
13406;SDS011;6774;48.208;10.766;2023-07-13T14:34:18;2.00;;;0.70;;
13406;SDS011;6774;48.208;10.766;2023-07-13T14:36:47;2.15;;;1.30;;
13406;SDS011;6774;48.208;10.766;2023-07-13T14:39:17;1.90;;;1.13;;
13406;SDS011;6774;48.208;10.766;2023-07-13T14:41:49;0.85;;;0.82;;
13406;SDS011;6774;48.208;10.766;2023-07-13T14:44:20;1.73;;;1.63;;
13406;SDS011;6774;48.208;10.766;2023-07-13T14:46:49;6.18;;;2.13;;
13406;SDS011;6774;48.208;10.766;2023-07-13T14:49:21;1.08;;;1.08;;
13406;SDS011;6774;48.208;10.766;2023-07-13T14:51:55;4.18;;;2.10;;
13406;SDS011;6774;48.208;10.766;2023-07-13T14:54:24;0.75;;;0.75;;
13406;SDS011;6774;48.208;10.766;2023-07-13T14:56:53;2.33;;;0.95;;
13406;SDS011;6774;48.208;10.766;2023-07-13T14:59:20;1.20;;;1.10;;
13406;SDS011;6774;48.208;10.766;2023-07-13T15:01:49;1.48;;;0.98;;
13406;SDS011;6774;48.208;10.766;2023-07-13T15:04:17;1.65;;;1.45;;
13406;SDS011;6774;48.208;10.766;2023-07-13T15:06:57;3.75;;;1.35;;
13406;SDS011;6774;48.208;10.766;2023-07-13T15:09:26;1.00;;;1.00;;
13406;SDS011;6774;48.208;10.766;2023-07-13T15:11:55;0.95;;;0.77;;
13406;SDS011;6774;48.208;10.766;2023-07-13T15:14:24;1.58;;;1.38;;
13406;SDS011;6774;48.208;10.766;2023-07-13T15:16:54;0.95;;;0.85;;